Tonos — V7EF2 — position and weather

sailwx.info

Track history (hours):
 
Tides and Currents Weather Stations Pressure Air Temp Water Temp Dewpoint Dewpoint Depression Visibility Wind Speed Wind Dir Waves Ship Positions

Tonos

Last reported at 2017-Sep-19 19:10 UTC. Time now 2017-Sep-24 19:45 UTC.
Position N 29°14' E 123°30'.

Length 276 m; draft 8.8 m.

Type: Tanker. MMSI: 538006541.

Date/timePositionNaut miles runAvg speedWind from/ knotsBaromVisibWave heightAir tempDewpointWater temp
2017-Sep-19 19:10N 29°14' E 123°30'312.8
2017-Sep-19 18:54N 29°17' E 123°30'712.9
2017-Sep-19 18:24N 29°24' E 123°31'511.5
2017-Sep-19 18:00N 29°28' E 123°33'912.3
2017-Sep-19 17:15N 29°37' E 123°34'1711.9
2017-Sep-19 15:51N 29°54' E 123°32'411.2
2017-Sep-19 15:29N 29°58' E 123°34'611.2
2017-Sep-19 14:59N 30°03' E 123°36'610.9
2017-Sep-19 14:27N 30°09' E 123°36'1010.7
2017-Sep-19 13:30N 30°19' E 123°37'910.3
2017-Sep-19 12:37N 30°28' E 123°38'310.9
2017-Sep-19 12:22N 30°31' E 123°38'410.4
2017-Sep-19 11:59N 30°35' E 123°38'511.3
2017-Sep-19 11:30N 30°40' E 123°40'611.3
2017-Sep-19 10:59N 30°46' E 123°41'611.8
2017-Sep-19 10:29N 30°52' E 123°41'1512.1
2017-Sep-19 09:16N 31°06' E 123°36'613.5
2017-Sep-19 08:48N 31°12' E 123°34'413.6
2017-Sep-19 08:30N 31°16' E 123°32'3013.2
2017-Sep-19 06:13N 31°46' E 123°29'1012.8
2017-Sep-19 05:25N 31°56' E 123°26'512.1
2017-Sep-19 05:00N 32°01' E 123°25'611.7
2017-Sep-19 04:30N 32°07' E 123°24'611.5
2017-Sep-19 04:00N 32°12' E 123°23'510.8
2017-Sep-19 03:30N 32°17' E 123°21'1210.6
2017-Sep-19 02:24N 32°28' E 123°17'410.3
2017-Sep-19 02:00N 32°33' E 123°16'610.4
2017-Sep-19 01:23N 32°39' E 123°15'1711.7
2017-Sep-18 23:54N 32°56' E 123°16'1612.9
2017-Sep-18 22:42N 33°12' E 123°18'313.3
2017-Sep-18 22:30N 33°14' E 123°19'1011.9
2017-Sep-18 21:41N 33°22' E 123°12'312.9
2017-Sep-18 21:25N 33°24' E 123°09'513.0
2017-Sep-18 21:00N 33°30' E 123°07'612.8
2017-Sep-18 20:30N 33°36' E 123°05'612.7
2017-Sep-18 20:00N 33°41' E 123°01'612.5
2017-Sep-18 19:30N 33°46' E 122°56'1811.2
2017-Sep-18 17:51N 34°04' E 122°51'511.0
2017-Sep-18 17:26N 34°08' E 122°49'2610.7
2017-Sep-18 15:00N 34°29' E 122°29'611.2
2017-Sep-18 14:30N 34°33' E 122°25'  
Track history (hours):
 
Tides and Currents Weather Stations Pressure Air Temp Water Temp Dewpoint Dewpoint Depression Visibility Wind Speed Wind Dir Waves Ship Positions

Tonos

Last reported at 2017-Sep-19 19:10 UTC. Time now 2017-Sep-24 19:45 UTC.
Position N 29°14' E 123°30'.

Length 276 m; draft 8.8 m.

Type: Tanker. MMSI: 538006541.

Date/timePositionNaut miles runAvg speedWind from/ knotsBaromVisibWave heightAir tempDewpointWater temp
2017-Sep-19 19:10N 29°14' E 123°30'312.8
2017-Sep-19 18:54N 29°17' E 123°30'712.9
2017-Sep-19 18:24N 29°24' E 123°31'511.5
2017-Sep-19 18:00N 29°28' E 123°33'912.3
2017-Sep-19 17:15N 29°37' E 123°34'1711.9
2017-Sep-19 15:51N 29°54' E 123°32'411.2
2017-Sep-19 15:29N 29°58' E 123°34'611.2
2017-Sep-19 14:59N 30°03' E 123°36'610.9
2017-Sep-19 14:27N 30°09' E 123°36'1010.7
2017-Sep-19 13:30N 30°19' E 123°37'910.3
2017-Sep-19 12:37N 30°28' E 123°38'310.9
2017-Sep-19 12:22N 30°31' E 123°38'410.4
2017-Sep-19 11:59N 30°35' E 123°38'511.3
2017-Sep-19 11:30N 30°40' E 123°40'611.3
2017-Sep-19 10:59N 30°46' E 123°41'611.8
2017-Sep-19 10:29N 30°52' E 123°41'1512.1
2017-Sep-19 09:16N 31°06' E 123°36'613.5
2017-Sep-19 08:48N 31°12' E 123°34'413.6
2017-Sep-19 08:30N 31°16' E 123°32'3013.2
2017-Sep-19 06:13N 31°46' E 123°29'1012.8
2017-Sep-19 05:25N 31°56' E 123°26'512.1
2017-Sep-19 05:00N 32°01' E 123°25'611.7
2017-Sep-19 04:30N 32°07' E 123°24'611.5
2017-Sep-19 04:00N 32°12' E 123°23'510.8
2017-Sep-19 03:30N 32°17' E 123°21'1210.6
2017-Sep-19 02:24N 32°28' E 123°17'410.3
2017-Sep-19 02:00N 32°33' E 123°16'610.4
2017-Sep-19 01:23N 32°39' E 123°15'1711.7
2017-Sep-18 23:54N 32°56' E 123°16'1612.9
2017-Sep-18 22:42N 33°12' E 123°18'313.3
2017-Sep-18 22:30N 33°14' E 123°19'1011.9
2017-Sep-18 21:41N 33°22' E 123°12'312.9
2017-Sep-18 21:25N 33°24' E 123°09'513.0
2017-Sep-18 21:00N 33°30' E 123°07'612.8
2017-Sep-18 20:30N 33°36' E 123°05'612.7
2017-Sep-18 20:00N 33°41' E 123°01'612.5
2017-Sep-18 19:30N 33°46' E 122°56'1811.2
2017-Sep-18 17:51N 34°04' E 122°51'511.0
2017-Sep-18 17:26N 34°08' E 122°49'2610.7
2017-Sep-18 15:00N 34°29' E 122°29'611.2
2017-Sep-18 14:30N 34°33' E 122°25'  

Dump ship's entire track history